createdAt,value
2022-11-25T00:02:25.010Z,99779.88
2022-11-25T00:07:32.617Z,99777.45
2022-11-25T00:12:40.198Z,99787.49
2022-11-25T00:17:47.605Z,99788.88
2022-11-25T00:22:54.938Z,99790.61
2022-11-25T00:28:02.338Z,99790.95
2022-11-25T00:33:09.765Z,99796.32
2022-11-25T00:38:17.066Z,99797.02
2022-11-25T00:43:41.925Z,99800.48
2022-11-25T00:48:49.180Z,99799.79
2022-11-25T00:53:59.151Z,99798.58
2022-11-25T00:59:07.222Z,99804.11
2022-11-25T01:04:15.156Z,99808.45
2022-11-25T01:09:22.644Z,99813.97
2022-11-25T01:14:30.215Z,99812.08
2022-11-25T01:19:40.844Z,99814.84
2022-11-25T01:24:48.624Z,99821.93
2022-11-25T01:29:56.234Z,99827.30
2022-11-25T01:35:03.584Z,99827.48
2022-11-25T01:40:14.394Z,99823.48
2022-11-25T01:45:41.633Z,99827.65
2022-11-25T01:50:50.480Z,99822.64
2022-11-25T01:56:02.379Z,99820.04
2022-11-25T02:01:10.449Z,99818.13
2022-11-25T02:06:23.205Z,99819.00
2022-11-25T02:11:32.759Z,99815.19
2022-11-25T02:16:40.243Z,99820.38
2022-11-25T02:21:54.355Z,99827.64
2022-11-25T02:27:02.125Z,99831.98
2022-11-25T02:32:10.799Z,99834.58
2022-11-25T02:37:23.322Z,99842.02
2022-11-25T02:42:32.674Z,99844.80
2022-11-25T02:47:40.154Z,99847.38
2022-11-25T02:52:47.454Z,99848.59
2022-11-25T02:57:54.934Z,99847.73
2022-11-25T03:03:03.683Z,99850.67
2022-11-25T03:08:12.004Z,99854.14
2022-11-25T03:13:19.477Z,99856.04
2022-11-25T03:18:27.137Z,99855.34
2022-11-25T03:23:34.515Z,99860.72
2022-11-25T03:28:41.920Z,99860.72
2022-11-25T03:33:49.835Z,99858.98
2022-11-25T03:38:57.241Z,99857.94
2022-11-25T03:44:04.869Z,99863.14
2022-11-25T03:49:12.765Z,99869.73
2022-11-25T03:54:20.416Z,99882.02
2022-11-25T03:59:48.220Z,99885.11
2022-11-25T04:04:55.534Z,99881.84
2022-11-25T04:10:03.669Z,99881.32
2022-11-25T04:15:13.280Z,99888.05
2022-11-25T04:20:21.290Z,99885.63
2022-11-25T04:25:34.024Z,99888.58
2022-11-25T04:30:42.231Z,99894.13
2022-11-25T04:35:51.292Z,99901.91
2022-11-25T04:41:00.963Z,99899.66
2022-11-25T04:46:14.429Z,99903.13
2022-11-25T04:51:24.802Z,99906.41
2022-11-25T04:56:36.715Z,99905.72
2022-11-25T05:01:44.274Z,99913.34
2022-11-25T05:07:01.595Z,99911.42
2022-11-25T05:12:12.654Z,99912.30
2022-11-25T05:17:23.119Z,99908.66
2022-11-25T05:22:32.938Z,99914.89
2022-11-25T05:27:41.162Z,99920.44
2022-11-25T05:32:49.795Z,99926.50
2022-11-25T05:38:01.551Z,99929.42
2022-11-25T05:43:09.256Z,99937.92
2022-11-25T05:48:18.095Z,99945.54
2022-11-25T05:53:25.435Z,99952.45
2022-11-25T05:58:34.898Z,99954.20
2022-11-25T06:03:43.985Z,99953.15
2022-11-25T06:08:51.576Z,99959.39
2022-11-25T06:13:59.662Z,99966.14
2022-11-25T06:19:07.324Z,99967.19
2022-11-25T06:24:15.649Z,99971.85
2022-11-25T06:29:24.721Z,99976.35
2022-11-25T06:34:32.457Z,99984.31
2022-11-25T06:39:41.277Z,99983.63
2022-11-25T06:44:48.795Z,99978.44
2022-11-25T06:49:56.303Z,99979.29
2022-11-25T06:55:03.842Z,99986.05
2022-11-25T07:00:13.098Z,99982.07
2022-11-25T07:05:20.835Z,99986.40
2022-11-25T07:10:28.403Z,99990.90
2022-11-25T07:15:38.801Z,99993.33
2022-11-25T07:20:46.183Z,99996.45
2022-11-25T07:25:53.829Z,99998.54
2022-11-25T07:31:27.552Z,100002.00
2022-11-25T07:36:37.477Z,100005.98
2022-11-25T07:41:45.115Z,100002.69
2022-11-25T07:46:54.046Z,100013.43
2022-11-25T07:52:02.766Z,100019.32
2022-11-25T07:57:10.356Z,100024.52
2022-11-25T08:02:17.779Z,100022.95
2022-11-25T08:07:25.148Z,100025.04
2022-11-25T08:12:33.276Z,100020.36
2022-11-25T08:17:40.726Z,100026.95
2022-11-25T08:22:48.037Z,100017.59
2022-11-25T08:27:55.438Z,100025.04
2022-11-25T08:33:05.400Z,100029.72
2022-11-25T08:38:19.597Z,100033.02
2022-11-25T08:43:29.549Z,100037.86
2022-11-25T08:48:37.563Z,100042.54
2022-11-25T08:53:47.355Z,100048.95
2022-11-25T08:58:54.965Z,100054.67
2022-11-25T09:04:03.596Z,100059.34
2022-11-25T09:09:11.436Z,100063.14
2022-11-25T09:14:18.995Z,100069.23
2022-11-25T09:19:26.415Z,100066.11
2022-11-25T09:24:33.663Z,100066.45
2022-11-25T09:29:41.413Z,100064.72
2022-11-25T09:34:48.806Z,100068.71
2022-11-25T09:39:57.645Z,100069.57
2022-11-25T09:45:35.496Z,100070.27
2022-11-25T09:50:56.900Z,100068.17
2022-11-25T09:56:11.899Z,100068.88
2022-11-25T10:01:24.116Z,100066.11
2022-11-25T10:06:30.488Z,100069.58
2022-11-25T10:11:51.883Z,100071.83
2022-11-25T10:17:06.927Z,100074.60
2022-11-25T10:22:24.964Z,100083.95
2022-11-25T10:27:47.953Z,100085.35
2022-11-25T10:33:02.616Z,100093.33
2022-11-25T10:38:19.033Z,100088.46
2022-11-25T10:43:31.666Z,100095.04
2022-11-25T10:48:55.664Z,100096.96
2022-11-25T10:54:27.235Z,100096.27
2022-11-25T10:59:34.798Z,100092.80
2022-11-25T11:04:55.485Z,100093.31
2022-11-25T11:10:19.278Z,100084.30
2022-11-25T11:15:28.841Z,100092.63
2022-11-25T11:20:36.238Z,100099.55
2022-11-25T11:25:45.420Z,100103.38
2022-11-25T11:31:02.250Z,100105.97
2022-11-25T11:36:26.535Z,100104.58
2022-11-25T11:41:47.166Z,100105.96
2022-11-25T11:47:21.379Z,100105.45
2022-11-25T11:52:42.059Z,100107.01
2022-11-25T11:57:57.797Z,100111.69
2022-11-25T12:03:12.983Z,100112.55
2022-11-25T12:08:25.075Z,100109.09
2022-11-25T12:13:41.597Z,100107.88
2022-11-25T12:18:55.262Z,100116.72
2022-11-25T12:24:08.476Z,100118.79
2022-11-25T12:29:22.153Z,100121.05
2022-11-25T12:34:38.390Z,100122.62
2022-11-25T12:39:54.085Z,100122.27
2022-11-25T12:45:08.723Z,100132.15
2022-11-25T12:50:22.475Z,100132.15
2022-11-25T12:55:30.451Z,100126.95
2022-11-25T13:01:00.609Z,100130.41
2022-11-25T13:06:34.077Z,100137.34
2022-11-25T13:12:06.675Z,100145.67
2022-11-25T13:17:17.127Z,100146.88
2022-11-25T13:22:31.456Z,100145.15
2022-11-25T13:28:03.336Z,100148.61
2022-11-25T13:33:39.616Z,100152.27
2022-11-25T13:39:15.596Z,100158.33
2022-11-25T13:44:35.660Z,100163.88
2022-11-25T13:49:54.248Z,100168.04
2022-11-25T13:55:02.721Z,100171.50
